21 a 28/9 - Fresco a templado, caluroso N, luego tormentas C y NEA [récords mensuales y absolutos de calor N]

Avatar de Usuario
MOTORHOMEMASTER
Mensajes: 4858
Registrado: Lun May 16, 2011 2:20 pm
Ubicación: Castelar o Hurlingham, Prov. Bs. As.

Re: 21 a 28/9 - Fresco a templado, caluroso N, luego tormentas C y NEA. Nuevas nevadas extremo S.

Mensaje por MOTORHOMEMASTER » Vie Sep 25, 2020 7:19 am

Llovieron 10 gotas en Castelar

Avatar de Usuario
Ezequiel15
Mensajes: 11685
Registrado: Lun Ene 23, 2012 4:18 pm
Ubicación: I Casanova
Contactar:

Re: 21 a 28/9 - Fresco a templado, caluroso N, luego tormentas C y NEA. Nuevas nevadas extremo S.

Mensaje por Ezequiel15 » Vie Sep 25, 2020 7:50 am

Por acá 15,9 hum 87%. Llovió un poco recién.

Avatar de Usuario
Diecha
Mensajes: 11956
Registrado: Jue Ago 25, 2011 9:31 pm
Ubicación: Lomas de Zamora

Re: 21 a 28/9 - Fresco a templado, caluroso N, luego tormentas C y NEA. Nuevas nevadas extremo S.

Mensaje por Diecha » Vie Sep 25, 2020 9:47 am

Buenas.

Imagen

Imagen
Spoiler
Mostrar
Imagen
Imagen
Imagen
Imagen
Imagen
Imagen
Imagen
Imagen
Imagen
Imagen
Imagen
Imagen
Imagen
Imagen
Imagen
Imagen
Imagen
Última edición por Diecha el Vie Sep 25, 2020 11:59 am, editado 1 vez en total.

nahuel
Mensajes: 2718
Registrado: Vie May 09, 2014 2:20 am
Ubicación: santa rosa, La Pampa

Re: 21 a 28/9 - Fresco a templado, caluroso N, luego tormentas C y NEA. Nuevas nevadas extremo S.

Mensaje por nahuel » Vie Sep 25, 2020 10:16 am

Bueno a las 6:30 hs comenzo el evento al principio mucho ruido y pocas nueces, pero desde las 8 am se abrio el grifo y diluvii lindo por unos 20 minutos. Ahora llueve tranqui......

Avatar de Usuario
Diecha
Mensajes: 11956
Registrado: Jue Ago 25, 2011 9:31 pm
Ubicación: Lomas de Zamora

Re: 21 a 28/9 - Fresco a templado, caluroso N, luego tormentas C y NEA. Nuevas nevadas extremo S.

Mensaje por Diecha » Vie Sep 25, 2020 10:29 am

- Ezeiza 05 hs: SAEZ 250800Z 14010KT 8000 -RA SCT043 OVC060 14/11 Q1017
- Ezeiza 05:41 hs: SAEZ 250841Z 18008KT 3000 RA FEW005 SCT020 OVC060 14/11 Q1019
- Ezeiza 06 hs: SAEZ 250900Z 14010KT 5000 -TSRA BKN003 FEW045CB OVC021 13/11 Q1019

Imagen

Avatar de Usuario
Marcelo
Mensajes: 5864
Registrado: Jue Jul 30, 2009 3:42 pm
Ubicación: Villa Crespo, Ciudad de Buenos Aires

Re: 21 a 28/9 - Fresco a templado, caluroso N, luego tormentas C y NEA. Nuevas nevadas extremo S.

Mensaje por Marcelo » Vie Sep 25, 2020 12:12 pm

Tremendo calor en el norte!!!
Datos de las 12hs:

Corrientes: 35,4°C
Formosa: 36,7°C
Las Lomitas: 36,8°C
Pres. Roque Sáenz Peña: 38,3°C

EMA Posta Zalazar: 37,9°C
EMA Ingeniero Juárez: 38,3°C
EMA Parque Nacional Chaco: 38,8°C
La posta para lo que sucede en Buenos Aires la tiene la estación de AEROPARQUE.

Mis threads de Climatología:
Mapas Climáticos de Argentina
Temperaturas Extremas de Argentina
Nevadas en Sitios Inusuales

Avatar de Usuario
maxi_rosario_eche21
Mensajes: 9438
Registrado: Mié Sep 23, 2009 1:55 am
Ubicación: Rosario, Argentina
Contactar:

Re: 21 a 28/9 - Fresco a templado, caluroso N, luego tormentas C y NEA. Nuevas nevadas extremo S.

Mensaje por maxi_rosario_eche21 » Vie Sep 25, 2020 12:16 pm

Comenzó a propagar al noreste el sistema de Cordoba... Se nota el frente de Ráfagas en la visible!

Avatar de Usuario
Diecha
Mensajes: 11956
Registrado: Jue Ago 25, 2011 9:31 pm
Ubicación: Lomas de Zamora

Re: 21 a 28/9 - Fresco a templado, caluroso N, luego tormentas C y NEA. Nuevas nevadas extremo S.

Mensaje por Diecha » Vie Sep 25, 2020 12:32 pm

Imagen

Imagen
Spoiler
Mostrar
Imagen
Imagen
Imagen
Imagen
Imagen
Imagen
Imagen
Imagen
Imagen
Imagen
Imagen
Imagen
Imagen
Imagen
Imagen
Última edición por Diecha el Vie Sep 25, 2020 5:58 pm, editado 1 vez en total.

Avatar de Usuario
Ezequiel15
Mensajes: 11685
Registrado: Lun Ene 23, 2012 4:18 pm
Ubicación: I Casanova
Contactar:

Re: 21 a 28/9 - Fresco a templado, caluroso N, luego tormentas C y NEA. Nuevas nevadas extremo S.

Mensaje por Ezequiel15 » Vie Sep 25, 2020 12:54 pm

El miércoles Rio Grande tuvo 15,0°C de máxima, la temperatura más alta allí desde principios de abril.

Avatar de Usuario
Valentin
Mensajes: 2364
Registrado: Mar Oct 04, 2016 11:17 am
Ubicación: Venado Tuerto

Re: 21 a 28/9 - Fresco a templado, caluroso N, luego tormentas C y NEA. Nuevas nevadas extremo S.

Mensaje por Valentin » Vie Sep 25, 2020 1:40 pm

Hasta ahora en Venado un chaparrón cerca de las 11hs y nada más.

Imagen

Responder